sensor_id;sensor_type;location;lat;lon;timestamp;temperature;humidity
14934;DHT22;7560;51.364;12.384;2024-01-30T00:03:31;5.30;99.90
14934;DHT22;7560;51.364;12.384;2024-01-30T00:08:32;5.20;99.90
14934;DHT22;7560;51.364;12.384;2024-01-30T00:13:34;5.10;99.90
14934;DHT22;7560;51.364;12.384;2024-01-30T00:18:36;5.10;99.90
14934;DHT22;7560;51.364;12.384;2024-01-30T00:23:38;5.10;99.90
14934;DHT22;7560;51.364;12.384;2024-01-30T00:28:40;5.10;99.90
14934;DHT22;7560;51.364;12.384;2024-01-30T00:33:42;5.20;99.90
14934;DHT22;7560;51.364;12.384;2024-01-30T00:38:44;5.20;99.90
14934;DHT22;7560;51.364;12.384;2024-01-30T00:43:46;5.20;99.90
14934;DHT22;7560;51.364;12.384;2024-01-30T00:48:48;5.20;99.90
14934;DHT22;7560;51.364;12.384;2024-01-30T00:53:50;5.30;99.90
14934;DHT22;7560;51.364;12.384;2024-01-30T00:58:51;5.30;99.90
14934;DHT22;7560;51.364;12.384;2024-01-30T01:03:53;5.40;99.90
14934;DHT22;7560;51.364;12.384;2024-01-30T01:08:55;5.40;99.90
14934;DHT22;7560;51.364;12.384;2024-01-30T01:13:57;5.50;99.90
14934;DHT22;7560;51.364;12.384;2024-01-30T01:18:59;5.60;99.90
14934;DHT22;7560;51.364;12.384;2024-01-30T01:24:02;5.60;99.90
14934;DHT22;7560;51.364;12.384;2024-01-30T01:29:03;5.70;99.90
14934;DHT22;7560;51.364;12.384;2024-01-30T01:34:12;5.70;99.90
14934;DHT22;7560;51.364;12.384;2024-01-30T01:39:14;5.70;99.90
14934;DHT22;7560;51.364;12.384;2024-01-30T01:44:17;5.60;99.90
14934;DHT22;7560;51.364;12.384;2024-01-30T01:49:20;5.60;99.90
14934;DHT22;7560;51.364;12.384;2024-01-30T01:54:22;5.60;99.90
14934;DHT22;7560;51.364;12.384;2024-01-30T01:59:25;5.70;99.90
14934;DHT22;7560;51.364;12.384;2024-01-30T02:04:27;5.70;99.90
14934;DHT22;7560;51.364;12.384;2024-01-30T02:09:29;5.80;99.90
14934;DHT22;7560;51.364;12.384;2024-01-30T02:14:30;5.80;99.90
14934;DHT22;7560;51.364;12.384;2024-01-30T02:19:32;5.70;99.90
14934;DHT22;7560;51.364;12.384;2024-01-30T02:24:34;5.80;99.90
14934;DHT22;7560;51.364;12.384;2024-01-30T02:29:36;5.70;99.90
14934;DHT22;7560;51.364;12.384;2024-01-30T02:34:38;5.60;99.90
14934;DHT22;7560;51.364;12.384;2024-01-30T02:39:40;5.50;99.90
14934;DHT22;7560;51.364;12.384;2024-01-30T02:44:41;5.60;99.90
14934;DHT22;7560;51.364;12.384;2024-01-30T02:49:43;5.50;99.90
14934;DHT22;7560;51.364;12.384;2024-01-30T02:54:45;5.40;99.90
14934;DHT22;7560;51.364;12.384;2024-01-30T02:59:47;5.20;99.90
14934;DHT22;7560;51.364;12.384;2024-01-30T03:04:49;5.20;99.90
14934;DHT22;7560;51.364;12.384;2024-01-30T03:09:51;5.30;99.90
14934;DHT22;7560;51.364;12.384;2024-01-30T03:14:52;5.30;99.90
14934;DHT22;7560;51.364;12.384;2024-01-30T03:19:54;5.20;99.90
14934;DHT22;7560;51.364;12.384;2024-01-30T03:24:56;5.10;99.90
14934;DHT22;7560;51.364;12.384;2024-01-30T03:29:58;5.10;99.90
14934;DHT22;7560;51.364;12.384;2024-01-30T03:34:59;5.10;99.90
14934;DHT22;7560;51.364;12.384;2024-01-30T03:40:02;5.10;99.90
14934;DHT22;7560;51.364;12.384;2024-01-30T03:45:05;5.00;99.90
14934;DHT22;7560;51.364;12.384;2024-01-30T03:50:07;5.00;99.90
14934;DHT22;7560;51.364;12.384;2024-01-30T03:55:09;5.00;99.90
14934;DHT22;7560;51.364;12.384;2024-01-30T04:00:11;5.10;99.90
14934;DHT22;7560;51.364;12.384;2024-01-30T04:05:13;5.10;99.90
14934;DHT22;7560;51.364;12.384;2024-01-30T04:10:16;5.10;99.90
14934;DHT22;7560;51.364;12.384;2024-01-30T04:15:18;5.00;99.90
14934;DHT22;7560;51.364;12.384;2024-01-30T04:20:20;5.00;99.90
14934;DHT22;7560;51.364;12.384;2024-01-30T04:25:21;4.90;99.90
14934;DHT22;7560;51.364;12.384;2024-01-30T04:30:23;4.90;99.90
14934;DHT22;7560;51.364;12.384;2024-01-30T04:35:25;4.90;99.90
14934;DHT22;7560;51.364;12.384;2024-01-30T04:40:27;5.00;99.90
14934;DHT22;7560;51.364;12.384;2024-01-30T04:45:29;5.10;99.90
14934;DHT22;7560;51.364;12.384;2024-01-30T04:50:30;5.20;99.90
14934;DHT22;7560;51.364;12.384;2024-01-30T04:55:32;5.20;99.90
14934;DHT22;7560;51.364;12.384;2024-01-30T05:00:34;5.20;99.90
14934;DHT22;7560;51.364;12.384;2024-01-30T05:05:36;5.30;99.90
14934;DHT22;7560;51.364;12.384;2024-01-30T05:10:37;5.30;99.90
14934;DHT22;7560;51.364;12.384;2024-01-30T05:15:39;5.30;99.90
14934;DHT22;7560;51.364;12.384;2024-01-30T05:20:41;5.10;99.90
14934;DHT22;7560;51.364;12.384;2024-01-30T05:25:43;5.10;99.90
14934;DHT22;7560;51.364;12.384;2024-01-30T05:30:45;5.00;99.90
14934;DHT22;7560;51.364;12.384;2024-01-30T05:35:47;5.10;99.90
14934;DHT22;7560;51.364;12.384;2024-01-30T05:40:50;5.20;99.90
14934;DHT22;7560;51.364;12.384;2024-01-30T05:45:52;5.20;99.90
14934;DHT22;7560;51.364;12.384;2024-01-30T05:50:54;5.30;99.90
14934;DHT22;7560;51.364;12.384;2024-01-30T05:55:56;5.20;99.90
14934;DHT22;7560;51.364;12.384;2024-01-30T06:00:58;5.20;99.90
14934;DHT22;7560;51.364;12.384;2024-01-30T06:06:00;5.10;99.90
14934;DHT22;7560;51.364;12.384;2024-01-30T06:11:02;5.20;99.90
14934;DHT22;7560;51.364;12.384;2024-01-30T06:16:04;5.10;99.90
14934;DHT22;7560;51.364;12.384;2024-01-30T06:21:06;5.00;99.90
14934;DHT22;7560;51.364;12.384;2024-01-30T06:26:11;5.00;99.90
14934;DHT22;7560;51.364;12.384;2024-01-30T06:31:13;4.90;99.90
14934;DHT22;7560;51.364;12.384;2024-01-30T06:36:15;4.90;99.90
14934;DHT22;7560;51.364;12.384;2024-01-30T06:41:17;4.80;99.90
14934;DHT22;7560;51.364;12.384;2024-01-30T06:46:18;4.90;99.90
14934;DHT22;7560;51.364;12.384;2024-01-30T06:51:20;5.00;99.90
14934;DHT22;7560;51.364;12.384;2024-01-30T06:56:22;4.90;99.90
14934;DHT22;7560;51.364;12.384;2024-01-30T07:01:28;4.90;99.90
14934;DHT22;7560;51.364;12.384;2024-01-30T07:06:31;5.00;99.90
14934;DHT22;7560;51.364;12.384;2024-01-30T07:11:33;5.00;99.90
14934;DHT22;7560;51.364;12.384;2024-01-30T07:16:34;5.10;99.90
14934;DHT22;7560;51.364;12.384;2024-01-30T07:21:36;5.20;99.90
14934;DHT22;7560;51.364;12.384;2024-01-30T07:26:38;5.20;99.90
14934;DHT22;7560;51.364;12.384;2024-01-30T07:31:40;5.30;99.90
14934;DHT22;7560;51.364;12.384;2024-01-30T07:36:42;5.40;99.90
14934;DHT22;7560;51.364;12.384;2024-01-30T07:41:44;5.60;99.90
14934;DHT22;7560;51.364;12.384;2024-01-30T07:46:46;5.70;99.90
14934;DHT22;7560;51.364;12.384;2024-01-30T07:51:48;5.60;99.90
14934;DHT22;7560;51.364;12.384;2024-01-30T07:56:49;5.80;99.90
14934;DHT22;7560;51.364;12.384;2024-01-30T08:01:51;5.90;99.90
14934;DHT22;7560;51.364;12.384;2024-01-30T08:06:53;6.00;99.90
14934;DHT22;7560;51.364;12.384;2024-01-30T08:11:55;6.20;99.90
14934;DHT22;7560;51.364;12.384;2024-01-30T08:16:57;6.30;99.90
14934;DHT22;7560;51.364;12.384;2024-01-30T08:21:59;6.40;99.90
14934;DHT22;7560;51.364;12.384;2024-01-30T08:27:01;6.50;99.90
14934;DHT22;7560;51.364;12.384;2024-01-30T08:32:07;6.60;99.90
14934;DHT22;7560;51.364;12.384;2024-01-30T08:37:09;6.70;99.90
14934;DHT22;7560;51.364;12.384;2024-01-30T08:42:11;6.80;99.90
14934;DHT22;7560;51.364;12.384;2024-01-30T08:47:13;6.90;99.90
14934;DHT22;7560;51.364;12.384;2024-01-30T08:52:15;7.10;99.90
14934;DHT22;7560;51.364;12.384;2024-01-30T08:57:17;7.20;99.90
14934;DHT22;7560;51.364;12.384;2024-01-30T09:02:18;7.20;99.90
14934;DHT22;7560;51.364;12.384;2024-01-30T09:07:21;7.30;99.90
14934;DHT22;7560;51.364;12.384;2024-01-30T09:12:22;7.50;99.90
14934;DHT22;7560;51.364;12.384;2024-01-30T09:17:25;7.60;99.90
14934;DHT22;7560;51.364;12.384;2024-01-30T09:22:27;7.70;99.90
14934;DHT22;7560;51.364;12.384;2024-01-30T09:27:29;7.90;99.90
14934;DHT22;7560;51.364;12.384;2024-01-30T09:32:30;8.00;99.90
14934;DHT22;7560;51.364;12.384;2024-01-30T09:37:32;8.20;99.90
14934;DHT22;7560;51.364;12.384;2024-01-30T09:42:35;8.30;99.90
14934;DHT22;7560;51.364;12.384;2024-01-30T09:47:44;8.50;99.90
14934;DHT22;7560;51.364;12.384;2024-01-30T09:52:47;8.70;99.90
14934;DHT22;7560;51.364;12.384;2024-01-30T09:57:49;8.80;99.90
14934;DHT22;7560;51.364;12.384;2024-01-30T10:02:52;8.90;99.90
14934;DHT22;7560;51.364;12.384;2024-01-30T10:07:55;9.10;99.90
14934;DHT22;7560;51.364;12.384;2024-01-30T10:12:57;9.10;99.90
14934;DHT22;7560;51.364;12.384;2024-01-30T10:18:01;9.30;99.90
14934;DHT22;7560;51.364;12.384;2024-01-30T10:23:04;9.40;99.90
14934;DHT22;7560;51.364;12.384;2024-01-30T10:28:05;9.50;99.90
14934;DHT22;7560;51.364;12.384;2024-01-30T10:33:07;9.60;99.90
14934;DHT22;7560;51.364;12.384;2024-01-30T10:38:11;9.60;99.90
14934;DHT22;7560;51.364;12.384;2024-01-30T10:43:15;9.70;99.90
14934;DHT22;7560;51.364;12.384;2024-01-30T10:48:20;9.70;99.90
14934;DHT22;7560;51.364;12.384;2024-01-30T10:53:27;9.90;99.90
14934;DHT22;7560;51.364;12.384;2024-01-30T10:58:32;10.00;99.90
14934;DHT22;7560;51.364;12.384;2024-01-30T11:03:34;10.10;99.90
14934;DHT22;7560;51.364;12.384;2024-01-30T11:08:37;10.20;99.90
14934;DHT22;7560;51.364;12.384;2024-01-30T11:13:40;10.30;99.90
14934;DHT22;7560;51.364;12.384;2024-01-30T11:18:42;10.40;99.90
14934;DHT22;7560;51.364;12.384;2024-01-30T11:24:47;10.50;99.90
14934;DHT22;7560;51.364;12.384;2024-01-30T11:29:50;10.60;99.90
14934;DHT22;7560;51.364;12.384;2024-01-30T11:34:53;10.60;99.90
14934;DHT22;7560;51.364;12.384;2024-01-30T11:39:56;10.70;99.90
14934;DHT22;7560;51.364;12.384;2024-01-30T11:45:00;10.80;99.90
14934;DHT22;7560;51.364;12.384;2024-01-30T11:50:04;10.80;99.90
14934;DHT22;7560;51.364;12.384;2024-01-30T11:55:08;10.80;99.90
14934;DHT22;7560;51.364;12.384;2024-01-30T12:00:17;10.80;99.90
14934;DHT22;7560;51.364;12.384;2024-01-30T12:05:20;11.00;99.90
14934;DHT22;7560;51.364;12.384;2024-01-30T12:10:22;11.20;99.90
14934;DHT22;7560;51.364;12.384;2024-01-30T12:15:24;11.20;99.90
14934;DHT22;7560;51.364;12.384;2024-01-30T12:20:26;11.30;99.90
14934;DHT22;7560;51.364;12.384;2024-01-30T12:25:29;11.40;99.90
14934;DHT22;7560;51.364;12.384;2024-01-30T12:30:31;11.50;99.90
14934;DHT22;7560;51.364;12.384;2024-01-30T12:35:33;11.70;99.90
14934;DHT22;7560;51.364;12.384;2024-01-30T12:40:36;11.90;99.90
14934;DHT22;7560;51.364;12.384;2024-01-30T12:45:41;12.00;99.90
14934;DHT22;7560;51.364;12.384;2024-01-30T12:50:43;12.20;99.90
14934;DHT22;7560;51.364;12.384;2024-01-30T12:55:45;12.10;99.90
14934;DHT22;7560;51.364;12.384;2024-01-30T13:00:47;12.20;99.90
14934;DHT22;7560;51.364;12.384;2024-01-30T13:05:49;12.30;99.90
14934;DHT22;7560;51.364;12.384;2024-01-30T13:10:51;12.30;99.90
14934;DHT22;7560;51.364;12.384;2024-01-30T13:15:52;12.40;99.90
14934;DHT22;7560;51.364;12.384;2024-01-30T13:20:54;12.40;99.90
14934;DHT22;7560;51.364;12.384;2024-01-30T13:25:56;12.50;99.90
14934;DHT22;7560;51.364;12.384;2024-01-30T13:31:00;12.50;99.90
14934;DHT22;7560;51.364;12.384;2024-01-30T13:36:02;12.50;99.90
14934;DHT22;7560;51.364;12.384;2024-01-30T13:41:04;12.40;99.90
14934;DHT22;7560;51.364;12.384;2024-01-30T13:46:05;12.40;99.90
14934;DHT22;7560;51.364;12.384;2024-01-30T13:51:07;12.30;99.90
14934;DHT22;7560;51.364;12.384;2024-01-30T13:56:09;12.40;99.90
14934;DHT22;7560;51.364;12.384;2024-01-30T14:01:11;12.40;99.90
14934;DHT22;7560;51.364;12.384;2024-01-30T14:06:13;12.50;99.90
14934;DHT22;7560;51.364;12.384;2024-01-30T14:11:15;12.40;99.90
14934;DHT22;7560;51.364;12.384;2024-01-30T14:16:17;12.30;99.90
14934;DHT22;7560;51.364;12.384;2024-01-30T14:21:19;12.30;99.90
14934;DHT22;7560;51.364;12.384;2024-01-30T14:26:21;12.20;99.90
14934;DHT22;7560;51.364;12.384;2024-01-30T14:31:22;12.10;99.90
14934;DHT22;7560;51.364;12.384;2024-01-30T14:36:26;12.10;99.90
14934;DHT22;7560;51.364;12.384;2024-01-30T14:41:30;12.00;99.90
14934;DHT22;7560;51.364;12.384;2024-01-30T14:46:31;11.90;99.90
14934;DHT22;7560;51.364;12.384;2024-01-30T14:51:33;11.80;99.90
14934;DHT22;7560;51.364;12.384;2024-01-30T14:56:35;11.80;99.90
14934;DHT22;7560;51.364;12.384;2024-01-30T15:01:37;11.70;99.90
14934;DHT22;7560;51.364;12.384;2024-01-30T15:06:40;11.60;99.90
14934;DHT22;7560;51.364;12.384;2024-01-30T15:11:47;11.50;99.90
14934;DHT22;7560;51.364;12.384;2024-01-30T15:16:48;11.50;99.90
14934;DHT22;7560;51.364;12.384;2024-01-30T15:21:50;11.40;99.90
14934;DHT22;7560;51.364;12.384;2024-01-30T15:26:52;11.30;99.90
14934;DHT22;7560;51.364;12.384;2024-01-30T15:31:54;11.20;99.90
14934;DHT22;7560;51.364;12.384;2024-01-30T15:36:56;11.10;99.90
14934;DHT22;7560;51.364;12.384;2024-01-30T15:41:58;10.90;99.90
14934;DHT22;7560;51.364;12.384;2024-01-30T15:47:02;10.80;99.90
14934;DHT22;7560;51.364;12.384;2024-01-30T15:52:04;10.60;99.90
14934;DHT22;7560;51.364;12.384;2024-01-30T15:57:06;10.50;99.90
14934;DHT22;7560;51.364;12.384;2024-01-30T16:02:09;10.30;99.90
14934;DHT22;7560;51.364;12.384;2024-01-30T16:07:11;10.30;99.90
14934;DHT22;7560;51.364;12.384;2024-01-30T16:12:12;10.20;99.90
14934;DHT22;7560;51.364;12.384;2024-01-30T16:17:14;10.00;99.90
14934;DHT22;7560;51.364;12.384;2024-01-30T16:22:16;9.90;99.90
14934;DHT22;7560;51.364;12.384;2024-01-30T16:27:18;10.00;99.90
14934;DHT22;7560;51.364;12.384;2024-01-30T16:32:20;9.90;99.90
14934;DHT22;7560;51.364;12.384;2024-01-30T16:37:22;9.80;99.90
14934;DHT22;7560;51.364;12.384;2024-01-30T16:42:24;9.80;99.90
14934;DHT22;7560;51.364;12.384;2024-01-30T16:47:25;9.70;99.90
14934;DHT22;7560;51.364;12.384;2024-01-30T16:52:27;9.70;99.90
14934;DHT22;7560;51.364;12.384;2024-01-30T16:57:29;9.70;99.90
14934;DHT22;7560;51.364;12.384;2024-01-30T17:02:32;9.70;99.90
14934;DHT22;7560;51.364;12.384;2024-01-30T17:07:34;9.70;99.90
14934;DHT22;7560;51.364;12.384;2024-01-30T17:12:37;9.70;99.90
14934;DHT22;7560;51.364;12.384;2024-01-30T17:17:38;9.70;99.90
14934;DHT22;7560;51.364;12.384;2024-01-30T17:22:40;9.60;99.90
14934;DHT22;7560;51.364;12.384;2024-01-30T17:27:47;9.60;99.90
14934;DHT22;7560;51.364;12.384;2024-01-30T17:32:50;9.50;99.90
14934;DHT22;7560;51.364;12.384;2024-01-30T17:37:52;9.50;99.90
14934;DHT22;7560;51.364;12.384;2024-01-30T17:42:54;9.50;99.90
14934;DHT22;7560;51.364;12.384;2024-01-30T17:47:56;9.50;99.90
14934;DHT22;7560;51.364;12.384;2024-01-30T17:52:58;9.50;99.90
14934;DHT22;7560;51.364;12.384;2024-01-30T17:58:00;9.40;99.90
14934;DHT22;7560;51.364;12.384;2024-01-30T18:03:04;9.30;99.90
14934;DHT22;7560;51.364;12.384;2024-01-30T18:08:06;9.40;99.90
14934;DHT22;7560;51.364;12.384;2024-01-30T18:13:09;9.30;99.90
14934;DHT22;7560;51.364;12.384;2024-01-30T18:18:14;9.30;99.90
14934;DHT22;7560;51.364;12.384;2024-01-30T18:23:18;9.20;99.90
14934;DHT22;7560;51.364;12.384;2024-01-30T18:28:20;9.20;99.90
14934;DHT22;7560;51.364;12.384;2024-01-30T18:33:21;9.20;99.90
14934;DHT22;7560;51.364;12.384;2024-01-30T18:38:23;9.20;99.90
14934;DHT22;7560;51.364;12.384;2024-01-30T18:43:25;9.10;99.90
14934;DHT22;7560;51.364;12.384;2024-01-30T18:48:27;9.00;99.90
14934;DHT22;7560;51.364;12.384;2024-01-30T18:53:29;9.00;99.90
14934;DHT22;7560;51.364;12.384;2024-01-30T18:58:31;8.80;99.90
14934;DHT22;7560;51.364;12.384;2024-01-30T19:03:32;8.80;99.90
14934;DHT22;7560;51.364;12.384;2024-01-30T19:08:34;8.80;99.90
14934;DHT22;7560;51.364;12.384;2024-01-30T19:13:37;8.80;99.90
14934;DHT22;7560;51.364;12.384;2024-01-30T19:18:39;8.80;99.90
14934;DHT22;7560;51.364;12.384;2024-01-30T19:23:40;8.70;99.90
14934;DHT22;7560;51.364;12.384;2024-01-30T19:28:42;8.60;99.90
14934;DHT22;7560;51.364;12.384;2024-01-30T19:33:45;8.50;99.90
14934;DHT22;7560;51.364;12.384;2024-01-30T19:38:47;8.40;99.90
14934;DHT22;7560;51.364;12.384;2024-01-30T19:43:49;8.40;99.90
14934;DHT22;7560;51.364;12.384;2024-01-30T19:48:51;8.50;99.90
14934;DHT22;7560;51.364;12.384;2024-01-30T19:53:53;8.50;99.90
14934;DHT22;7560;51.364;12.384;2024-01-30T19:58:55;8.60;99.90
14934;DHT22;7560;51.364;12.384;2024-01-30T20:03:57;8.70;99.90
14934;DHT22;7560;51.364;12.384;2024-01-30T20:08:59;8.80;99.90
14934;DHT22;7560;51.364;12.384;2024-01-30T20:14:01;8.90;99.90
14934;DHT22;7560;51.364;12.384;2024-01-30T20:19:03;8.90;99.90
14934;DHT22;7560;51.364;12.384;2024-01-30T20:24:06;8.90;99.90
14934;DHT22;7560;51.364;12.384;2024-01-30T20:29:07;8.90;99.90
14934;DHT22;7560;51.364;12.384;2024-01-30T20:34:10;8.90;99.90
14934;DHT22;7560;51.364;12.384;2024-01-30T20:39:12;9.00;99.90
14934;DHT22;7560;51.364;12.384;2024-01-30T20:44:15;9.00;99.90
14934;DHT22;7560;51.364;12.384;2024-01-30T20:49:21;9.00;99.90
14934;DHT22;7560;51.364;12.384;2024-01-30T20:54:23;9.00;99.90
14934;DHT22;7560;51.364;12.384;2024-01-30T20:59:25;9.00;99.90
14934;DHT22;7560;51.364;12.384;2024-01-30T21:04:27;9.00;99.90
14934;DHT22;7560;51.364;12.384;2024-01-30T21:09:29;9.00;99.90
14934;DHT22;7560;51.364;12.384;2024-01-30T21:14:30;9.00;99.90
14934;DHT22;7560;51.364;12.384;2024-01-30T21:19:32;9.00;99.90
14934;DHT22;7560;51.364;12.384;2024-01-30T21:24:34;9.00;99.90
14934;DHT22;7560;51.364;12.384;2024-01-30T21:29:36;9.00;99.90
14934;DHT22;7560;51.364;12.384;2024-01-30T21:34:41;9.00;99.90
14934;DHT22;7560;51.364;12.384;2024-01-30T21:39:43;9.00;99.90
14934;DHT22;7560;51.364;12.384;2024-01-30T21:44:45;9.00;99.90
14934;DHT22;7560;51.364;12.384;2024-01-30T21:49:48;9.00;99.90
14934;DHT22;7560;51.364;12.384;2024-01-30T21:54:50;9.00;99.90
14934;DHT22;7560;51.364;12.384;2024-01-30T21:59:52;9.00;99.90
14934;DHT22;7560;51.364;12.384;2024-01-30T22:04:54;9.10;99.90
14934;DHT22;7560;51.364;12.384;2024-01-30T22:09:56;9.10;99.90
14934;DHT22;7560;51.364;12.384;2024-01-30T22:14:58;9.10;99.90
14934;DHT22;7560;51.364;12.384;2024-01-30T22:20:00;9.10;99.90
14934;DHT22;7560;51.364;12.384;2024-01-30T22:25:02;9.10;99.90
14934;DHT22;7560;51.364;12.384;2024-01-30T22:30:04;9.00;99.90
14934;DHT22;7560;51.364;12.384;2024-01-30T22:35:07;9.00;99.90
14934;DHT22;7560;51.364;12.384;2024-01-30T22:40:12;9.00;99.90
14934;DHT22;7560;51.364;12.384;2024-01-30T22:45:14;9.00;99.90
14934;DHT22;7560;51.364;12.384;2024-01-30T22:50:16;9.00;99.90
14934;DHT22;7560;51.364;12.384;2024-01-30T22:55:17;8.90;99.90
14934;DHT22;7560;51.364;12.384;2024-01-30T23:00:20;8.80;99.90
14934;DHT22;7560;51.364;12.384;2024-01-30T23:05:30;8.70;99.90
14934;DHT22;7560;51.364;12.384;2024-01-30T23:10:31;8.60;99.90
14934;DHT22;7560;51.364;12.384;2024-01-30T23:15:33;8.60;99.90
14934;DHT22;7560;51.364;12.384;2024-01-30T23:20:35;8.90;99.90
14934;DHT22;7560;51.364;12.384;2024-01-30T23:25:38;8.90;99.90
14934;DHT22;7560;51.364;12.384;2024-01-30T23:30:39;8.90;99.90
14934;DHT22;7560;51.364;12.384;2024-01-30T23:35:41;8.90;99.90
14934;DHT22;7560;51.364;12.384;2024-01-30T23:40:43;8.90;99.90
14934;DHT22;7560;51.364;12.384;2024-01-30T23:45:45;8.90;99.90
14934;DHT22;7560;51.364;12.384;2024-01-30T23:50:47;8.90;99.90
14934;DHT22;7560;51.364;12.384;2024-01-30T23:55:49;8.90;99.90
